Orlando, FL (32835)

3:06 PM EDT on June 03, 2015 (GMT -0400)
Windermere Wylde | | Change Station
CLOSE
Current Station
Personal Weather Station
Location: Orlando, FL
Elevation: 154 ft
Nearby Weather Stations

Elev 154 ft 28.50 °N, 81.50 °W | Updated 31 seconds ago

Overcast
Overcast
83.1 °F
Feels Like 89 °F
N
0.2
Wind Variable Wind from East
Gusts 2.5 mph

Today
High -- | Low -- °F
--% Chance of Precip.
Yesterday
High -- | Low -- °F
Precip. -- in
6:28 AM 8:20 PM
Full, 99% visible
Pressure 29.95 in
Visibility 10.0 miles
Clouds Mostly Cloudy 4000 ft
Mostly Cloudy 6500 ft
Heat Index 89 °F
Dew Point 74 °F
Humidity 73%
Rainfall 0.00 in
Snow Depth Not available.
UV 7 out of 12
Pollen 3.40 out of 12
Air Quality Not available.
Flu Activity Sporadic
METAR KORL 031853Z COR 08010KT 10SM BKN040 BKN065 28/19 A2994 RMK AO2 SLP141 T02830194

More Conditions Fewer Conditions

Pressure 29.95 in
Visibility 10.0 miles
Clouds Mostly Cloudy 4000 ft
Mostly Cloudy 6500 ft
Heat Index 89 °F
Dew Point 74 °F
Humidity 73%
Rainfall 0.00 in
Snow Depth Not available.
UV 7 out of 12
Pollen 3.40 out of 12
Air Quality Not available.
Flu Activity Sporadic
METAR KORL 031853Z COR 08010KT 10SM BKN040 BKN065 28/19 A2994 RMK AO2 SLP141 T02830194

More Conditions Fewer Conditions

Nowcast | as of 11:00 am EDT on June 3, 2015

Through early this afternoon...most areas will remain dry under partly to mostly cloudy skies. Temperatures will warm into the lower to mid 80s across much of the region with generally light east winds expected. Later this afternoon...scattered showers and isolated thunderstorms are expected to develop...with higher coverage expected across southern areas...inland areas of the Treasure Coast and Okeechobee County...where more moisture exists. One or two of today's storms could be strong containing dangerous cloud to ground lightning... gusty winds...and small hail. A moderate risk of rip currents exists at area beaches...with the highest threat between noon and 6:00 PM due to tidal effects. Always swim within sight of a lifeguard and never swim alone. Additional details...including graphics are available online at: http://www.Srh.NOAA.Gov/mlb/blog.Php

×

10-Day Weather Forecast

×

Almanac

Astronomy

Jun. 03, 2015 Rise Set
Actual Time
Civil Twilight
Nautical Twilight
Astronomical Twilight
Moon
Length of Visible Light
Length of Day
Tomorrow will be .
, % of the Moon is Illuminated

Today's Extremes

State Highs State Lows

Community

WunderPhotos

Upload Photos

1,826,270 photos uploaded!

WunderBlogs® & News

Nearby

Air Quality

  Air Quality AQ Index Pollutant
Not available.

Snow Depth

Station Depth Elevation

Earthquake Activity

City Distance Mag. Time & Date
Minimum magnitude displayed is 2.5.

Coastal Water Temperatures

Place Temperature

Stations

Nearby Weather Stations

Station Location Temp. Windchill Dew Point Humidity Wind Precip. Elev Updated Type